sensor_id;sensor_type;location;lat;lon;timestamp;P1;durP1;ratioP1;P2;durP2;ratioP2
58643;SDS011;44411;49.994;8.660;2023-05-15T00:02:00;6.90;;;4.70;;
58643;SDS011;44411;49.994;8.660;2023-05-15T00:04:25;6.15;;;4.43;;
58643;SDS011;44411;49.994;8.660;2023-05-15T00:06:51;6.43;;;4.72;;
58643;SDS011;44411;49.994;8.660;2023-05-15T00:09:17;7.53;;;5.05;;
58643;SDS011;44411;49.994;8.660;2023-05-15T00:11:42;6.60;;;3.90;;
58643;SDS011;44411;49.994;8.660;2023-05-15T00:14:07;6.63;;;4.43;;
58643;SDS011;44411;49.994;8.660;2023-05-15T00:16:35;6.70;;;4.43;;
58643;SDS011;44411;49.994;8.660;2023-05-15T00:19:00;5.70;;;4.25;;
58643;SDS011;44411;49.994;8.660;2023-05-15T00:21:25;11.77;;;4.70;;
58643;SDS011;44411;49.994;8.660;2023-05-15T00:23:50;6.70;;;4.60;;
58643;SDS011;44411;49.994;8.660;2023-05-15T00:26:17;6.45;;;4.20;;
58643;SDS011;44411;49.994;8.660;2023-05-15T00:28:43;7.00;;;5.23;;
58643;SDS011;44411;49.994;8.660;2023-05-15T00:31:08;7.50;;;4.20;;
58643;SDS011;44411;49.994;8.660;2023-05-15T00:33:33;11.90;;;5.60;;
58643;SDS011;44411;49.994;8.660;2023-05-15T00:35:58;6.13;;;4.40;;
58643;SDS011;44411;49.994;8.660;2023-05-15T00:38:23;7.50;;;5.03;;
58643;SDS011;44411;49.994;8.660;2023-05-15T00:40:49;7.95;;;4.95;;
58643;SDS011;44411;49.994;8.660;2023-05-15T00:43:15;8.32;;;4.53;;
58643;SDS011;44411;49.994;8.660;2023-05-15T00:45:40;7.00;;;4.57;;
58643;SDS011;44411;49.994;8.660;2023-05-15T00:48:06;6.35;;;4.60;;
58643;SDS011;44411;49.994;8.660;2023-05-15T00:50:33;6.88;;;4.93;;
58643;SDS011;44411;49.994;8.660;2023-05-15T00:52:58;7.35;;;5.00;;
58643;SDS011;44411;49.994;8.660;2023-05-15T00:55:24;10.00;;;4.70;;
58643;SDS011;44411;49.994;8.660;2023-05-15T00:57:50;7.55;;;4.95;;
58643;SDS011;44411;49.994;8.660;2023-05-15T01:00:16;6.90;;;4.47;;
58643;SDS011;44411;49.994;8.660;2023-05-15T01:02:42;7.28;;;4.65;;
58643;SDS011;44411;49.994;8.660;2023-05-15T01:05:08;7.15;;;4.63;;
58643;SDS011;44411;49.994;8.660;2023-05-15T01:07:33;9.30;;;5.70;;
58643;SDS011;44411;49.994;8.660;2023-05-15T01:10:01;6.68;;;4.68;;
58643;SDS011;44411;49.994;8.660;2023-05-15T01:12:27;7.97;;;5.68;;
58643;SDS011;44411;49.994;8.660;2023-05-15T01:14:53;7.75;;;5.13;;
58643;SDS011;44411;49.994;8.660;2023-05-15T01:17:20;7.25;;;5.43;;
58643;SDS011;44411;49.994;8.660;2023-05-15T01:19:45;6.30;;;4.22;;
58643;SDS011;44411;49.994;8.660;2023-05-15T01:30:27;8.30;;;4.95;;
58643;SDS011;44411;49.994;8.660;2023-05-15T01:37:47;7.25;;;5.35;;
58643;SDS011;44411;49.994;8.660;2023-05-15T01:40:14;6.85;;;4.68;;
58643;SDS011;44411;49.994;8.660;2023-05-15T01:42:41;8.63;;;5.70;;
58643;SDS011;44411;49.994;8.660;2023-05-15T01:45:08;7.15;;;4.90;;
58643;SDS011;44411;49.994;8.660;2023-05-15T01:47:36;8.07;;;5.13;;
58643;SDS011;44411;49.994;8.660;2023-05-15T01:50:03;7.03;;;5.57;;
58643;SDS011;44411;49.994;8.660;2023-05-15T01:52:32;7.97;;;5.57;;
58643;SDS011;44411;49.994;8.660;2023-05-15T01:54:57;7.70;;;5.03;;
58643;SDS011;44411;49.994;8.660;2023-05-15T01:57:24;7.45;;;5.07;;
58643;SDS011;44411;49.994;8.660;2023-05-15T01:59:50;8.13;;;5.75;;
58643;SDS011;44411;49.994;8.660;2023-05-15T06:02:36;9.13;;;5.82;;
58643;SDS011;44411;49.994;8.660;2023-05-15T06:05:02;8.13;;;5.72;;
58643;SDS011;44411;49.994;8.660;2023-05-15T06:07:28;8.40;;;5.68;;
58643;SDS011;44411;49.994;8.660;2023-05-15T06:09:53;8.48;;;6.00;;
58643;SDS011;44411;49.994;8.660;2023-05-15T06:12:18;7.63;;;5.60;;
58643;SDS011;44411;49.994;8.660;2023-05-15T06:14:43;8.70;;;5.77;;
58643;SDS011;44411;49.994;8.660;2023-05-15T06:17:09;7.40;;;5.25;;
58643;SDS011;44411;49.994;8.660;2023-05-15T06:19:34;7.80;;;5.20;;
58643;SDS011;44411;49.994;8.660;2023-05-15T06:22:00;7.35;;;5.40;;
58643;SDS011;44411;49.994;8.660;2023-05-15T06:24:38;7.50;;;5.32;;
58643;SDS011;44411;49.994;8.660;2023-05-15T06:27:08;8.10;;;5.60;;
58643;SDS011;44411;49.994;8.660;2023-05-15T06:29:33;8.10;;;4.83;;
58643;SDS011;44411;49.994;8.660;2023-05-15T06:31:59;7.22;;;5.10;;
58643;SDS011;44411;49.994;8.660;2023-05-15T06:34:24;7.83;;;5.23;;
58643;SDS011;44411;49.994;8.660;2023-05-15T06:36:50;9.37;;;5.37;;
58643;SDS011;44411;49.994;8.660;2023-05-15T06:39:16;7.40;;;4.78;;
58643;SDS011;44411;49.994;8.660;2023-05-15T06:41:41;6.43;;;4.70;;
58643;SDS011;44411;49.994;8.660;2023-05-15T06:44:07;7.53;;;5.53;;
58643;SDS011;44411;49.994;8.660;2023-05-15T06:46:32;7.47;;;4.93;;
58643;SDS011;44411;49.994;8.660;2023-05-15T06:48:57;6.68;;;4.85;;
58643;SDS011;44411;49.994;8.660;2023-05-15T06:51:23;8.57;;;4.90;;
58643;SDS011;44411;49.994;8.660;2023-05-15T06:53:48;8.07;;;4.80;;
58643;SDS011;44411;49.994;8.660;2023-05-15T06:56:13;7.80;;;4.65;;
58643;SDS011;44411;49.994;8.660;2023-05-15T06:58:38;7.93;;;5.20;;
58643;SDS011;44411;49.994;8.660;2023-05-15T07:01:04;8.87;;;4.70;;
58643;SDS011;44411;49.994;8.660;2023-05-15T07:03:30;7.53;;;4.80;;
58643;SDS011;44411;49.994;8.660;2023-05-15T07:05:55;6.78;;;4.30;;
58643;SDS011;44411;49.994;8.660;2023-05-15T07:08:21;6.13;;;3.92;;
58643;SDS011;44411;49.994;8.660;2023-05-15T07:10:47;8.03;;;4.70;;
58643;SDS011;44411;49.994;8.660;2023-05-15T07:13:12;6.07;;;4.20;;
58643;SDS011;44411;49.994;8.660;2023-05-15T07:15:37;7.20;;;4.70;;
58643;SDS011;44411;49.994;8.660;2023-05-15T07:18:03;7.00;;;4.57;;
58643;SDS011;44411;49.994;8.660;2023-05-15T07:20:28;5.77;;;4.07;;
58643;SDS011;44411;49.994;8.660;2023-05-15T07:22:53;7.13;;;4.70;;
58643;SDS011;44411;49.994;8.660;2023-05-15T07:25:18;5.33;;;4.00;;
58643;SDS011;44411;49.994;8.660;2023-05-15T07:27:44;8.82;;;4.97;;
58643;SDS011;44411;49.994;8.660;2023-05-15T07:30:09;6.37;;;4.13;;
58643;SDS011;44411;49.994;8.660;2023-05-15T07:32:34;6.40;;;4.10;;
58643;SDS011;44411;49.994;8.660;2023-05-15T07:35:00;5.88;;;3.95;;
58643;SDS011;44411;49.994;8.660;2023-05-15T07:37:25;6.43;;;4.33;;
58643;SDS011;44411;49.994;8.660;2023-05-15T07:39:50;6.37;;;4.07;;
58643;SDS011;44411;49.994;8.660;2023-05-15T07:42:15;8.40;;;5.55;;
58643;SDS011;44411;49.994;8.660;2023-05-15T07:44:41;7.28;;;4.15;;
58643;SDS011;44411;49.994;8.660;2023-05-15T07:47:06;6.78;;;4.30;;
58643;SDS011;44411;49.994;8.660;2023-05-15T07:49:31;7.00;;;4.87;;
58643;SDS011;44411;49.994;8.660;2023-05-15T07:51:57;10.63;;;6.28;;
58643;SDS011;44411;49.994;8.660;2023-05-15T07:54:22;10.68;;;5.13;;
58643;SDS011;44411;49.994;8.660;2023-05-15T07:56:47;6.47;;;4.55;;
58643;SDS011;44411;49.994;8.660;2023-05-15T07:59:12;7.07;;;4.43;;
58643;SDS011;44411;49.994;8.660;2023-05-15T08:01:38;7.72;;;4.45;;
58643;SDS011;44411;49.994;8.660;2023-05-15T08:04:05;5.82;;;3.90;;
58643;SDS011;44411;49.994;8.660;2023-05-15T08:06:31;5.93;;;4.13;;
58643;SDS011;44411;49.994;8.660;2023-05-15T08:08:58;5.85;;;3.90;;
58643;SDS011;44411;49.994;8.660;2023-05-15T08:11:24;6.10;;;4.38;;
58643;SDS011;44411;49.994;8.660;2023-05-15T08:13:51;5.65;;;4.10;;
58643;SDS011;44411;49.994;8.660;2023-05-15T08:16:17;7.10;;;4.22;;
58643;SDS011;44411;49.994;8.660;2023-05-15T08:18:43;4.97;;;3.58;;
58643;SDS011;44411;49.994;8.660;2023-05-15T08:21:15;7.80;;;4.53;;
58643;SDS011;44411;49.994;8.660;2023-05-15T08:23:41;6.28;;;3.97;;
58643;SDS011;44411;49.994;8.660;2023-05-15T08:26:06;5.37;;;3.83;;
58643;SDS011;44411;49.994;8.660;2023-05-15T08:28:31;5.70;;;3.60;;
58643;SDS011;44411;49.994;8.660;2023-05-15T08:30:57;5.53;;;3.85;;
58643;SDS011;44411;49.994;8.660;2023-05-15T08:33:22;5.72;;;3.75;;
58643;SDS011;44411;49.994;8.660;2023-05-15T08:35:47;5.90;;;4.23;;
58643;SDS011;44411;49.994;8.660;2023-05-15T08:38:12;5.07;;;3.73;;
58643;SDS011;44411;49.994;8.660;2023-05-15T08:40:38;5.10;;;3.40;;
58643;SDS011;44411;49.994;8.660;2023-05-15T08:43:11;5.25;;;3.83;;
58643;SDS011;44411;49.994;8.660;2023-05-15T08:45:39;6.05;;;3.92;;
58643;SDS011;44411;49.994;8.660;2023-05-15T08:48:09;6.03;;;3.45;;
58643;SDS011;44411;49.994;8.660;2023-05-15T08:50:35;6.45;;;4.35;;
58643;SDS011;44411;49.994;8.660;2023-05-15T08:53:02;5.57;;;3.65;;
58643;SDS011;44411;49.994;8.660;2023-05-15T08:55:27;5.32;;;3.92;;
58643;SDS011;44411;49.994;8.660;2023-05-15T08:57:53;6.18;;;4.25;;
58643;SDS011;44411;49.994;8.660;2023-05-15T09:00:18;4.95;;;3.33;;
58643;SDS011;44411;49.994;8.660;2023-05-15T09:02:45;5.88;;;3.78;;
58643;SDS011;44411;49.994;8.660;2023-05-15T09:05:10;5.10;;;3.20;;
58643;SDS011;44411;49.994;8.660;2023-05-15T09:07:37;4.97;;;3.30;;
58643;SDS011;44411;49.994;8.660;2023-05-15T09:10:02;5.95;;;3.63;;
58643;SDS011;44411;49.994;8.660;2023-05-15T09:12:28;5.80;;;3.70;;
58643;SDS011;44411;49.994;8.660;2023-05-15T09:15:09;4.78;;;3.60;;
58643;SDS011;44411;49.994;8.660;2023-05-15T09:17:35;7.28;;;4.57;;
58643;SDS011;44411;49.994;8.660;2023-05-15T09:20:01;5.90;;;3.65;;
58643;SDS011;44411;49.994;8.660;2023-05-15T09:22:26;6.40;;;4.10;;
58643;SDS011;44411;49.994;8.660;2023-05-15T09:24:52;5.72;;;3.58;;
58643;SDS011;44411;49.994;8.660;2023-05-15T09:27:17;5.32;;;3.80;;
58643;SDS011;44411;49.994;8.660;2023-05-15T09:29:43;6.05;;;4.15;;
58643;SDS011;44411;49.994;8.660;2023-05-15T09:32:09;5.72;;;3.53;;
58643;SDS011;44411;49.994;8.660;2023-05-15T09:34:35;5.53;;;3.85;;
58643;SDS011;44411;49.994;8.660;2023-05-15T09:37:05;5.13;;;3.45;;
58643;SDS011;44411;49.994;8.660;2023-05-15T09:39:30;5.15;;;3.80;;
58643;SDS011;44411;49.994;8.660;2023-05-15T09:42:05;5.70;;;4.13;;
58643;SDS011;44411;49.994;8.660;2023-05-15T09:44:31;6.15;;;4.60;;
58643;SDS011;44411;49.994;8.660;2023-05-15T09:46:58;5.35;;;3.45;;
58643;SDS011;44411;49.994;8.660;2023-05-15T09:49:23;5.22;;;3.63;;
58643;SDS011;44411;49.994;8.660;2023-05-15T09:51:48;5.17;;;3.87;;
58643;SDS011;44411;49.994;8.660;2023-05-15T09:54:17;5.47;;;3.63;;
58643;SDS011;44411;49.994;8.660;2023-05-15T09:56:45;6.47;;;4.30;;
58643;SDS011;44411;49.994;8.660;2023-05-15T09:59:14;7.57;;;4.10;;
58643;SDS011;44411;49.994;8.660;2023-05-15T10:01:49;5.93;;;3.75;;
58643;SDS011;44411;49.994;8.660;2023-05-15T10:04:15;6.00;;;3.88;;
58643;SDS011;44411;49.994;8.660;2023-05-15T10:06:41;5.43;;;4.20;;
58643;SDS011;44411;49.994;8.660;2023-05-15T10:09:07;6.07;;;4.50;;
58643;SDS011;44411;49.994;8.660;2023-05-15T10:11:37;6.18;;;4.50;;
58643;SDS011;44411;49.994;8.660;2023-05-15T10:14:03;6.30;;;4.47;;
58643;SDS011;44411;49.994;8.660;2023-05-15T10:16:29;8.50;;;4.90;;
58643;SDS011;44411;49.994;8.660;2023-05-15T10:18:56;6.07;;;4.43;;
58643;SDS011;44411;49.994;8.660;2023-05-15T10:21:22;7.80;;;4.18;;
58643;SDS011;44411;49.994;8.660;2023-05-15T10:23:49;7.15;;;5.45;;
58643;SDS011;44411;49.994;8.660;2023-05-15T10:26:24;10.40;;;6.05;;
58643;SDS011;44411;49.994;8.660;2023-05-15T10:28:50;9.20;;;5.82;;
58643;SDS011;44411;49.994;8.660;2023-05-15T10:31:17;9.02;;;5.82;;
58643;SDS011;44411;49.994;8.660;2023-05-15T10:33:42;10.15;;;6.45;;
58643;SDS011;44411;49.994;8.660;2023-05-15T10:36:08;8.60;;;5.75;;
58643;SDS011;44411;49.994;8.660;2023-05-15T10:38:33;9.80;;;6.70;;
58643;SDS011;44411;49.994;8.660;2023-05-15T10:40:59;8.40;;;5.97;;
58643;SDS011;44411;49.994;8.660;2023-05-15T10:43:25;9.27;;;6.28;;
58643;SDS011;44411;49.994;8.660;2023-05-15T10:45:52;9.20;;;7.35;;
58643;SDS011;44411;49.994;8.660;2023-05-15T10:48:17;9.35;;;6.57;;
58643;SDS011;44411;49.994;8.660;2023-05-15T10:50:43;8.70;;;5.85;;
58643;SDS011;44411;49.994;8.660;2023-05-15T10:53:09;10.90;;;7.80;;
58643;SDS011;44411;49.994;8.660;2023-05-15T10:55:35;12.18;;;8.23;;
58643;SDS011;44411;49.994;8.660;2023-05-15T10:58:00;11.23;;;7.50;;
58643;SDS011;44411;49.994;8.660;2023-05-15T11:00:26;13.47;;;8.37;;
58643;SDS011;44411;49.994;8.660;2023-05-15T11:02:51;14.65;;;7.55;;
58643;SDS011;44411;49.994;8.660;2023-05-15T11:05:17;12.70;;;8.07;;
58643;SDS011;44411;49.994;8.660;2023-05-15T11:07:43;13.35;;;8.48;;
58643;SDS011;44411;49.994;8.660;2023-05-15T11:10:53;11.90;;;7.67;;
58643;SDS011;44411;49.994;8.660;2023-05-15T11:12:54;13.50;;;8.95;;
58643;SDS011;44411;49.994;8.660;2023-05-15T11:15:19;14.75;;;7.97;;
58643;SDS011;44411;49.994;8.660;2023-05-15T11:18:00;11.40;;;6.70;;
58643;SDS011;44411;49.994;8.660;2023-05-15T11:20:32;10.40;;;7.20;;
58643;SDS011;44411;49.994;8.660;2023-05-15T11:22:57;13.07;;;7.93;;
58643;SDS011;44411;49.994;8.660;2023-05-15T11:25:27;12.63;;;7.50;;
58643;SDS011;44411;49.994;8.660;2023-05-15T11:27:53;13.63;;;8.32;;
58643;SDS011;44411;49.994;8.660;2023-05-15T11:30:19;11.35;;;7.78;;
58643;SDS011;44411;49.994;8.660;2023-05-15T11:37:42;14.15;;;7.80;;
58643;SDS011;44411;49.994;8.660;2023-05-15T11:40:11;10.10;;;7.40;;
58643;SDS011;44411;49.994;8.660;2023-05-15T11:42:37;10.63;;;6.77;;
58643;SDS011;44411;49.994;8.660;2023-05-15T11:45:03;11.33;;;6.93;;
58643;SDS011;44411;49.994;8.660;2023-05-15T11:47:29;12.13;;;7.15;;
58643;SDS011;44411;49.994;8.660;2023-05-15T11:49:55;12.55;;;7.50;;
58643;SDS011;44411;49.994;8.660;2023-05-15T11:52:20;10.82;;;7.28;;
58643;SDS011;44411;49.994;8.660;2023-05-15T11:54:46;10.30;;;7.43;;
58643;SDS011;44411;49.994;8.660;2023-05-15T11:57:11;14.57;;;8.93;;
58643;SDS011;44411;49.994;8.660;2023-05-15T11:59:36;12.18;;;8.30;;
58643;SDS011;44411;49.994;8.660;2023-05-15T12:02:02;14.57;;;8.68;;
58643;SDS011;44411;49.994;8.660;2023-05-15T12:04:29;12.77;;;7.60;;
58643;SDS011;44411;49.994;8.660;2023-05-15T12:06:58;11.35;;;8.02;;
58643;SDS011;44411;49.994;8.660;2023-05-15T12:09:25;12.13;;;7.32;;
58643;SDS011;44411;49.994;8.660;2023-05-15T12:11:52;13.05;;;7.93;;
58643;SDS011;44411;49.994;8.660;2023-05-15T12:14:25;9.55;;;7.00;;
58643;SDS011;44411;49.994;8.660;2023-05-15T12:16:50;11.95;;;7.38;;
58643;SDS011;44411;49.994;8.660;2023-05-15T12:19:16;10.70;;;7.00;;
58643;SDS011;44411;49.994;8.660;2023-05-15T12:21:44;9.17;;;6.33;;
58643;SDS011;44411;49.994;8.660;2023-05-15T12:24:10;9.10;;;5.93;;
58643;SDS011;44411;49.994;8.660;2023-05-15T12:26:36;10.73;;;6.47;;
58643;SDS011;44411;49.994;8.660;2023-05-15T12:29:02;8.68;;;6.13;;
58643;SDS011;44411;49.994;8.660;2023-05-15T12:31:28;10.13;;;6.68;;
58643;SDS011;44411;49.994;8.660;2023-05-15T12:33:54;11.77;;;7.10;;
58643;SDS011;44411;49.994;8.660;2023-05-15T12:36:20;12.88;;;9.45;;
58643;SDS011;44411;49.994;8.660;2023-05-15T12:38:46;13.25;;;8.30;;
58643;SDS011;44411;49.994;8.660;2023-05-15T12:41:12;12.10;;;8.38;;
58643;SDS011;44411;49.994;8.660;2023-05-15T12:43:38;12.05;;;8.25;;
58643;SDS011;44411;49.994;8.660;2023-05-15T12:46:04;10.75;;;7.70;;
58643;SDS011;44411;49.994;8.660;2023-05-15T12:48:29;9.95;;;6.78;;
58643;SDS011;44411;49.994;8.660;2023-05-15T12:51:04;10.30;;;6.50;;
58643;SDS011;44411;49.994;8.660;2023-05-15T12:53:30;10.93;;;7.15;;
58643;SDS011;44411;49.994;8.660;2023-05-15T12:55:56;11.93;;;7.00;;
58643;SDS011;44411;49.994;8.660;2023-05-15T12:58:22;12.13;;;7.20;;
58643;SDS011;44411;49.994;8.660;2023-05-15T13:00:47;9.90;;;7.63;;
58643;SDS011;44411;49.994;8.660;2023-05-15T13:03:14;10.38;;;7.22;;
58643;SDS011;44411;49.994;8.660;2023-05-15T13:05:43;10.52;;;6.95;;
58643;SDS011;44411;49.994;8.660;2023-05-15T13:10:35;11.60;;;6.90;;
58643;SDS011;44411;49.994;8.660;2023-05-15T13:13:01;10.65;;;6.93;;
58643;SDS011;44411;49.994;8.660;2023-05-15T13:18:01;9.27;;;7.50;;
58643;SDS011;44411;49.994;8.660;2023-05-15T13:20:27;8.90;;;6.97;;
58643;SDS011;44411;49.994;8.660;2023-05-15T13:22:52;10.77;;;7.40;;
58643;SDS011;44411;49.994;8.660;2023-05-15T13:25:18;9.10;;;6.72;;
58643;SDS011;44411;49.994;8.660;2023-05-15T13:27:44;8.68;;;6.18;;
58643;SDS011;44411;49.994;8.660;2023-05-15T13:30:09;9.38;;;6.43;;
58643;SDS011;44411;49.994;8.660;2023-05-15T13:32:35;8.07;;;5.82;;
58643;SDS011;44411;49.994;8.660;2023-05-15T13:35:00;8.27;;;5.73;;
58643;SDS011;44411;49.994;8.660;2023-05-15T13:37:25;8.10;;;6.10;;
58643;SDS011;44411;49.994;8.660;2023-05-15T13:39:51;10.52;;;6.47;;
58643;SDS011;44411;49.994;8.660;2023-05-15T13:42:16;9.30;;;6.37;;
58643;SDS011;44411;49.994;8.660;2023-05-15T13:44:41;10.57;;;7.30;;
58643;SDS011;44411;49.994;8.660;2023-05-15T13:47:07;7.93;;;6.50;;
58643;SDS011;44411;49.994;8.660;2023-05-15T13:49:32;10.07;;;7.15;;
58643;SDS011;44411;49.994;8.660;2023-05-15T13:51:57;8.00;;;5.27;;
58643;SDS011;44411;49.994;8.660;2023-05-15T13:54:23;7.32;;;4.70;;
58643;SDS011;44411;49.994;8.660;2023-05-15T13:56:48;7.20;;;4.53;;
58643;SDS011;44411;49.994;8.660;2023-05-15T13:59:13;6.50;;;4.63;;
58643;SDS011;44411;49.994;8.660;2023-05-15T14:01:38;6.10;;;4.50;;
58643;SDS011;44411;49.994;8.660;2023-05-15T14:04:03;7.50;;;4.73;;
58643;SDS011;44411;49.994;8.660;2023-05-15T14:06:29;6.63;;;4.68;;
58643;SDS011;44411;49.994;8.660;2023-05-15T14:08:55;8.43;;;5.20;;
58643;SDS011;44411;49.994;8.660;2023-05-15T14:11:20;8.05;;;5.80;;
58643;SDS011;44411;49.994;8.660;2023-05-15T14:13:46;8.50;;;5.60;;
58643;SDS011;44411;49.994;8.660;2023-05-15T14:16:12;7.53;;;5.03;;
58643;SDS011;44411;49.994;8.660;2023-05-15T14:18:37;8.27;;;6.17;;
58643;SDS011;44411;49.994;8.660;2023-05-15T14:21:02;8.02;;;4.53;;
58643;SDS011;44411;49.994;8.660;2023-05-15T14:23:27;6.82;;;4.68;;
58643;SDS011;44411;49.994;8.660;2023-05-15T14:25:52;5.83;;;3.93;;
58643;SDS011;44411;49.994;8.660;2023-05-15T14:28:18;5.73;;;3.90;;
58643;SDS011;44411;49.994;8.660;2023-05-15T14:30:43;5.57;;;3.60;;
58643;SDS011;44411;49.994;8.660;2023-05-15T14:33:08;5.67;;;3.67;;
58643;SDS011;44411;49.994;8.660;2023-05-15T14:35:33;5.43;;;3.53;;
58643;SDS011;44411;49.994;8.660;2023-05-15T14:37:58;5.90;;;3.30;;
58643;SDS011;44411;49.994;8.660;2023-05-15T14:40:24;7.38;;;4.18;;
58643;SDS011;44411;49.994;8.660;2023-05-15T14:42:49;6.45;;;4.57;;
58643;SDS011;44411;49.994;8.660;2023-05-15T14:45:14;8.35;;;5.20;;
58643;SDS011;44411;49.994;8.660;2023-05-15T14:47:40;7.90;;;5.37;;
58643;SDS011;44411;49.994;8.660;2023-05-15T14:50:05;6.93;;;4.80;;
58643;SDS011;44411;49.994;8.660;2023-05-15T14:52:30;8.50;;;5.05;;
58643;SDS011;44411;49.994;8.660;2023-05-15T14:54:56;7.68;;;4.78;;
58643;SDS011;44411;49.994;8.660;2023-05-15T14:57:21;8.48;;;4.65;;
58643;SDS011;44411;49.994;8.660;2023-05-15T14:59:47;6.57;;;4.73;;
58643;SDS011;44411;49.994;8.660;2023-05-15T15:02:12;5.72;;;4.00;;
58643;SDS011;44411;49.994;8.660;2023-05-15T15:04:37;5.70;;;3.70;;
58643;SDS011;44411;49.994;8.660;2023-05-15T15:07:02;5.60;;;3.23;;
58643;SDS011;44411;49.994;8.660;2023-05-15T15:09:28;6.63;;;4.10;;
58643;SDS011;44411;49.994;8.660;2023-05-15T15:11:53;6.80;;;4.20;;
58643;SDS011;44411;49.994;8.660;2023-05-15T15:14:18;6.27;;;3.83;;
58643;SDS011;44411;49.994;8.660;2023-05-15T15:16:43;11.88;;;5.57;;
58643;SDS011;44411;49.994;8.660;2023-05-15T15:19:09;7.65;;;4.75;;
58643;SDS011;44411;49.994;8.660;2023-05-15T15:21:35;7.83;;;4.20;;
58643;SDS011;44411;49.994;8.660;2023-05-15T15:24:01;6.43;;;4.40;;
58643;SDS011;44411;49.994;8.660;2023-05-15T15:26:26;7.93;;;4.65;;
58643;SDS011;44411;49.994;8.660;2023-05-15T15:28:51;6.77;;;4.37;;
58643;SDS011;44411;49.994;8.660;2023-05-15T15:31:16;8.60;;;4.65;;
58643;SDS011;44411;49.994;8.660;2023-05-15T15:33:41;6.37;;;4.07;;
58643;SDS011;44411;49.994;8.660;2023-05-15T15:36:07;6.65;;;4.32;;
58643;SDS011;44411;49.994;8.660;2023-05-15T15:38:32;7.57;;;4.63;;
58643;SDS011;44411;49.994;8.660;2023-05-15T15:40:57;7.63;;;4.68;;
58643;SDS011;44411;49.994;8.660;2023-05-15T15:43:22;5.67;;;4.27;;
58643;SDS011;44411;49.994;8.660;2023-05-15T15:45:48;6.87;;;4.23;;
58643;SDS011;44411;49.994;8.660;2023-05-15T15:48:13;5.75;;;3.70;;
58643;SDS011;44411;49.994;8.660;2023-05-15T15:50:38;5.57;;;3.57;;
58643;SDS011;44411;49.994;8.660;2023-05-15T15:53:03;5.80;;;3.30;;
58643;SDS011;44411;49.994;8.660;2023-05-15T15:55:28;7.27;;;4.07;;
58643;SDS011;44411;49.994;8.660;2023-05-15T15:57:54;5.82;;;4.43;;
58643;SDS011;44411;49.994;8.660;2023-05-15T16:00:19;7.67;;;4.43;;
58643;SDS011;44411;49.994;8.660;2023-05-15T16:02:44;7.40;;;4.53;;
58643;SDS011;44411;49.994;8.660;2023-05-15T16:05:10;8.02;;;4.72;;
58643;SDS011;44411;49.994;8.660;2023-05-15T16:07:35;9.32;;;5.38;;
58643;SDS011;44411;49.994;8.660;2023-05-15T16:10:01;7.70;;;5.10;;
58643;SDS011;44411;49.994;8.660;2023-05-15T16:12:26;7.18;;;4.47;;
58643;SDS011;44411;49.994;8.660;2023-05-15T16:14:54;6.82;;;4.60;;
58643;SDS011;44411;49.994;8.660;2023-05-15T16:17:20;7.15;;;4.75;;
58643;SDS011;44411;49.994;8.660;2023-05-15T16:19:46;7.43;;;4.78;;
58643;SDS011;44411;49.994;8.660;2023-05-15T16:22:11;7.82;;;4.88;;
58643;SDS011;44411;49.994;8.660;2023-05-15T16:24:37;7.75;;;4.70;;
58643;SDS011;44411;49.994;8.660;2023-05-15T16:27:02;6.25;;;4.68;;
58643;SDS011;44411;49.994;8.660;2023-05-15T16:29:28;6.57;;;4.78;;
58643;SDS011;44411;49.994;8.660;2023-05-15T16:31:53;8.18;;;5.45;;
58643;SDS011;44411;49.994;8.660;2023-05-15T16:34:20;6.60;;;4.70;;
58643;SDS011;44411;49.994;8.660;2023-05-15T16:36:45;9.43;;;5.15;;
58643;SDS011;44411;49.994;8.660;2023-05-15T16:39:11;6.60;;;4.60;;
58643;SDS011;44411;49.994;8.660;2023-05-15T16:41:36;6.83;;;4.70;;
58643;SDS011;44411;49.994;8.660;2023-05-15T16:44:01;8.40;;;5.03;;
58643;SDS011;44411;49.994;8.660;2023-05-15T16:46:27;8.82;;;5.03;;
58643;SDS011;44411;49.994;8.660;2023-05-15T16:48:52;7.53;;;5.37;;
58643;SDS011;44411;49.994;8.660;2023-05-15T16:51:17;8.38;;;5.32;;
58643;SDS011;44411;49.994;8.660;2023-05-15T16:53:43;9.40;;;5.57;;
58643;SDS011;44411;49.994;8.660;2023-05-15T16:56:08;9.25;;;4.97;;
58643;SDS011;44411;49.994;8.660;2023-05-15T16:58:36;8.10;;;5.50;;
58643;SDS011;44411;49.994;8.660;2023-05-15T17:01:01;8.80;;;6.05;;
58643;SDS011;44411;49.994;8.660;2023-05-15T17:03:26;7.22;;;5.10;;
58643;SDS011;44411;49.994;8.660;2023-05-15T17:05:52;7.80;;;5.57;;
58643;SDS011;44411;49.994;8.660;2023-05-15T17:08:17;6.28;;;4.82;;
58643;SDS011;44411;49.994;8.660;2023-05-15T17:10:42;7.93;;;5.18;;
58643;SDS011;44411;49.994;8.660;2023-05-15T17:13:07;7.88;;;5.30;;
58643;SDS011;44411;49.994;8.660;2023-05-15T17:15:33;7.67;;;5.17;;
58643;SDS011;44411;49.994;8.660;2023-05-15T17:17:58;8.13;;;5.13;;
58643;SDS011;44411;49.994;8.660;2023-05-15T17:20:24;8.50;;;5.50;;
58643;SDS011;44411;49.994;8.660;2023-05-15T17:22:49;7.25;;;5.25;;
58643;SDS011;44411;49.994;8.660;2023-05-15T17:25:14;8.02;;;5.32;;
58643;SDS011;44411;49.994;8.660;2023-05-15T17:27:40;8.53;;;6.13;;
58643;SDS011;44411;49.994;8.660;2023-05-15T17:30:09;8.77;;;5.53;;
58643;SDS011;44411;49.994;8.660;2023-05-15T17:32:34;7.38;;;5.57;;
58643;SDS011;44411;49.994;8.660;2023-05-15T17:35:00;10.57;;;6.13;;
58643;SDS011;44411;49.994;8.660;2023-05-15T17:37:25;7.90;;;5.85;;
58643;SDS011;44411;49.994;8.660;2023-05-15T17:39:51;7.53;;;5.03;;
58643;SDS011;44411;49.994;8.660;2023-05-15T17:42:16;7.07;;;5.15;;
58643;SDS011;44411;49.994;8.660;2023-05-15T17:44:42;8.35;;;5.20;;
58643;SDS011;44411;49.994;8.660;2023-05-15T17:47:07;10.60;;;5.50;;
58643;SDS011;44411;49.994;8.660;2023-05-15T17:49:33;8.65;;;5.80;;
58643;SDS011;44411;49.994;8.660;2023-05-15T17:51:59;8.05;;;5.35;;
58643;SDS011;44411;49.994;8.660;2023-05-15T17:54:24;8.07;;;5.72;;
58643;SDS011;44411;49.994;8.660;2023-05-15T17:56:50;8.88;;;5.45;;
58643;SDS011;44411;49.994;8.660;2023-05-15T17:59:15;9.70;;;5.37;;
58643;SDS011;44411;49.994;8.660;2023-05-15T18:01:40;7.13;;;4.67;;
58643;SDS011;44411;49.994;8.660;2023-05-15T18:04:05;8.20;;;5.30;;
58643;SDS011;44411;49.994;8.660;2023-05-15T18:06:31;8.00;;;4.80;;
58643;SDS011;44411;49.994;8.660;2023-05-15T18:08:58;7.45;;;5.03;;
58643;SDS011;44411;49.994;8.660;2023-05-15T18:11:23;7.10;;;4.88;;
58643;SDS011;44411;49.994;8.660;2023-05-15T18:13:48;7.05;;;4.88;;
58643;SDS011;44411;49.994;8.660;2023-05-15T18:16:14;7.10;;;4.70;;
58643;SDS011;44411;49.994;8.660;2023-05-15T18:18:39;7.20;;;4.93;;
58643;SDS011;44411;49.994;8.660;2023-05-15T18:21:04;7.27;;;4.77;;
58643;SDS011;44411;49.994;8.660;2023-05-15T18:23:29;8.77;;;5.70;;
58643;SDS011;44411;49.994;8.660;2023-05-15T18:25:55;7.15;;;5.00;;
58643;SDS011;44411;49.994;8.660;2023-05-15T18:28:20;7.32;;;5.43;;
58643;SDS011;44411;49.994;8.660;2023-05-15T18:30:45;8.53;;;5.60;;
58643;SDS011;44411;49.994;8.660;2023-05-15T18:33:11;9.95;;;5.60;;
58643;SDS011;44411;49.994;8.660;2023-05-15T18:35:36;7.57;;;5.65;;
58643;SDS011;44411;49.994;8.660;2023-05-15T18:38:02;7.95;;;5.30;;
58643;SDS011;44411;49.994;8.660;2023-05-15T18:40:27;8.13;;;5.53;;
58643;SDS011;44411;49.994;8.660;2023-05-15T18:42:53;8.82;;;5.78;;
58643;SDS011;44411;49.994;8.660;2023-05-15T18:45:19;9.18;;;5.78;;
58643;SDS011;44411;49.994;8.660;2023-05-15T18:47:45;8.65;;;5.85;;
58643;SDS011;44411;49.994;8.660;2023-05-15T18:50:10;9.33;;;6.83;;
58643;SDS011;44411;49.994;8.660;2023-05-15T18:52:35;9.93;;;6.68;;
58643;SDS011;44411;49.994;8.660;2023-05-15T18:55:00;9.20;;;6.43;;
58643;SDS011;44411;49.994;8.660;2023-05-15T18:57:26;9.63;;;6.30;;
58643;SDS011;44411;49.994;8.660;2023-05-15T18:59:51;9.60;;;6.50;;
58643;SDS011;44411;49.994;8.660;2023-05-15T19:02:16;9.55;;;6.05;;